createdAt,value
2022-10-09T00:01:28.419Z,74.97
2022-10-09T00:03:56.502Z,73.50
2022-10-09T00:06:26.223Z,74.51
2022-10-09T00:08:53.052Z,73.58
2022-10-09T00:11:24.760Z,74.19
2022-10-09T00:13:51.359Z,76.33
2022-10-09T00:16:18.763Z,76.44
2022-10-09T00:18:45.902Z,75.71
2022-10-09T00:21:20.099Z,75.35
2022-10-09T00:23:47.188Z,75.13
2022-10-09T00:26:13.898Z,73.49
2022-10-09T00:28:40.302Z,74.39
2022-10-09T00:31:08.257Z,73.66
2022-10-09T00:33:36.319Z,73.56
2022-10-09T00:36:09.142Z,74.22
2022-10-09T00:38:35.525Z,76.03
2022-10-09T00:41:01.958Z,74.03
2022-10-09T00:43:45.128Z,74.44
2022-10-09T00:46:25.485Z,74.02
2022-10-09T00:49:03.609Z,74.83
2022-10-09T00:51:31.099Z,72.74
2022-10-09T00:53:58.222Z,73.95
2022-10-09T00:56:25.332Z,74.04
2022-10-09T00:58:54.988Z,74.43
2022-10-09T01:01:21.336Z,73.91
2022-10-09T01:03:47.733Z,74.76
2022-10-09T01:06:30.198Z,74.26
2022-10-09T01:09:18.523Z,74.19
2022-10-09T01:12:23.380Z,74.86
2022-10-09T01:14:58.969Z,74.18
2022-10-09T01:17:33.309Z,75.57
2022-10-09T01:20:27.106Z,75.19
2022-10-09T01:23:18.473Z,76.80
2022-10-09T01:26:15.825Z,76.73
2022-10-09T01:29:04.603Z,75.82
2022-10-09T01:31:33.871Z,74.15
2022-10-09T01:34:01.626Z,74.92
2022-10-09T01:36:30.773Z,74.30
2022-10-09T01:39:03.050Z,75.46
2022-10-09T01:41:29.862Z,75.07
2022-10-09T01:43:56.322Z,74.52
2022-10-09T01:46:30.548Z,73.65
2022-10-09T01:49:12.660Z,74.14
2022-10-09T01:52:12.477Z,72.80
2022-10-09T01:55:03.621Z,72.02
2022-10-09T01:57:52.753Z,72.52
2022-10-09T02:00:19.658Z,72.11
2022-10-09T02:02:48.075Z,73.72
2022-10-09T02:05:22.264Z,73.62
2022-10-09T02:07:49.060Z,72.10
2022-10-09T02:10:18.308Z,71.68
2022-10-09T02:12:51.006Z,71.05
2022-10-09T02:15:17.782Z,71.98
2022-10-09T02:17:48.823Z,73.11
2022-10-09T02:20:35.096Z,72.31
2022-10-09T02:23:06.262Z,71.57
2022-10-09T02:25:33.300Z,72.03
2022-10-09T02:28:00.231Z,72.31
2022-10-09T02:30:35.155Z,70.89
2022-10-09T02:33:01.485Z,72.13
2022-10-09T02:35:27.962Z,70.70
2022-10-09T02:37:54.268Z,71.16
2022-10-09T02:40:20.635Z,71.94
2022-10-09T02:42:47.482Z,70.18
2022-10-09T02:45:14.227Z,71.20
2022-10-09T02:47:40.602Z,70.20
2022-10-09T02:50:07.799Z,70.65
2022-10-09T02:52:34.107Z,72.20
2022-10-09T02:55:00.466Z,70.63
2022-10-09T02:57:26.759Z,72.49
2022-10-09T02:59:53.070Z,71.39
2022-10-09T03:02:19.521Z,73.55
2022-10-09T03:04:46.085Z,73.15
2022-10-09T03:07:12.425Z,71.77
2022-10-09T03:09:38.886Z,73.58
2022-10-09T03:12:05.297Z,72.48
2022-10-09T03:14:31.628Z,71.55
2022-10-09T03:16:58.003Z,71.96
2022-10-09T03:19:24.427Z,72.45
2022-10-09T03:21:50.759Z,73.45
2022-10-09T03:24:17.157Z,72.25
2022-10-09T03:26:43.495Z,72.01
2022-10-09T03:29:09.805Z,72.97
2022-10-09T03:31:53.057Z,73.71
2022-10-09T03:34:19.906Z,74.80
2022-10-09T03:36:46.668Z,76.76
2022-10-09T03:39:12.980Z,77.10
2022-10-09T03:41:39.383Z,78.38
2022-10-09T03:44:05.840Z,76.28
2022-10-09T03:46:32.238Z,76.42
2022-10-09T03:48:58.602Z,76.58
2022-10-09T03:51:24.963Z,76.98
2022-10-09T03:53:51.285Z,78.34
2022-10-09T03:56:17.596Z,77.80
2022-10-09T03:58:43.941Z,79.14
2022-10-09T04:01:10.343Z,78.15
2022-10-09T04:03:36.860Z,77.87
2022-10-09T04:06:03.710Z,77.39
2022-10-09T04:08:30.048Z,78.42
2022-10-09T04:10:57.903Z,78.40
2022-10-09T04:13:24.403Z,79.02
2022-10-09T04:15:52.065Z,77.23
2022-10-09T04:18:18.466Z,77.23
2022-10-09T04:20:50.002Z,76.65
2022-10-09T04:23:16.631Z,76.91
2022-10-09T04:25:42.945Z,76.95
2022-10-09T04:28:09.334Z,77.54
2022-10-09T04:30:35.682Z,77.28
2022-10-09T04:33:02.039Z,77.78
2022-10-09T04:35:28.399Z,78.60
2022-10-09T04:37:54.705Z,77.79
2022-10-09T04:40:21.033Z,76.92
2022-10-09T04:42:47.687Z,78.90
2022-10-09T04:45:14.308Z,78.05
2022-10-09T04:47:40.648Z,79.37
2022-10-09T04:50:07.563Z,78.15
2022-10-09T04:52:33.884Z,80.19
2022-10-09T04:55:00.186Z,79.44
2022-10-09T04:57:26.564Z,78.01
2022-10-09T04:59:52.944Z,79.14
2022-10-09T05:02:19.328Z,79.74
2022-10-09T05:04:46.488Z,79.08
2022-10-09T05:07:12.795Z,78.71
2022-10-09T05:09:39.115Z,79.72
2022-10-09T05:12:05.510Z,77.96
2022-10-09T05:14:31.836Z,76.00
2022-10-09T05:17:13.462Z,77.00
2022-10-09T05:19:40.272Z,73.93
2022-10-09T05:22:06.642Z,73.56
2022-10-09T05:24:32.962Z,72.09
2022-10-09T05:26:59.352Z,71.21
2022-10-09T05:29:25.705Z,72.34
2022-10-09T05:31:52.098Z,72.12
2022-10-09T05:34:18.506Z,71.70
2022-10-09T05:36:44.889Z,71.38
2022-10-09T05:39:11.271Z,70.04
2022-10-09T05:41:37.594Z,70.90
2022-10-09T05:44:04.357Z,68.96
2022-10-09T05:46:30.965Z,70.26
2022-10-09T05:49:00.258Z,70.48
2022-10-09T05:51:31.384Z,69.86
2022-10-09T05:53:58.490Z,69.74
2022-10-09T05:56:24.768Z,69.62
2022-10-09T05:58:59.795Z,70.00
2022-10-09T06:01:29.807Z,70.32
2022-10-09T06:03:57.871Z,70.84
2022-10-09T06:06:26.725Z,70.69
2022-10-09T06:08:53.850Z,70.90
2022-10-09T06:11:28.257Z,70.57
2022-10-09T06:13:56.054Z,72.30
2022-10-09T06:16:25.743Z,73.52
2022-10-09T06:18:53.921Z,75.43
2022-10-09T06:21:20.929Z,76.68
2022-10-09T06:23:50.247Z,76.64
2022-10-09T06:26:16.920Z,77.26
2022-10-09T06:28:43.408Z,77.51
2022-10-09T06:31:21.437Z,79.31
2022-10-09T06:33:49.169Z,79.96
2022-10-09T06:36:20.891Z,79.63
2022-10-09T06:38:47.195Z,80.55
2022-10-09T06:41:15.996Z,79.78
2022-10-09T06:43:43.206Z,80.92
2022-10-09T06:46:12.342Z,81.48
2022-10-09T06:48:40.368Z,80.35
2022-10-09T06:51:15.095Z,81.82
2022-10-09T06:53:46.310Z,79.91
2022-10-09T06:56:13.016Z,81.72
2022-10-09T06:58:39.810Z,80.50
2022-10-09T07:01:10.389Z,79.78
2022-10-09T07:03:38.154Z,80.20
2022-10-09T07:06:15.739Z,79.68
2022-10-09T07:08:44.811Z,79.84
2022-10-09T07:11:22.064Z,80.18
2022-10-09T07:13:50.875Z,81.68
2022-10-09T07:16:23.086Z,81.26
2022-10-09T07:18:49.716Z,82.72
2022-10-09T07:21:16.897Z,82.10
2022-10-09T07:23:43.596Z,83.46
2022-10-09T07:26:22.161Z,81.35
2022-10-09T07:28:49.196Z,82.19
2022-10-09T07:31:16.496Z,81.63
2022-10-09T07:33:43.008Z,81.37
2022-10-09T07:36:10.511Z,81.74
2022-10-09T07:38:36.956Z,82.88
2022-10-09T07:41:06.134Z,84.80
2022-10-09T07:43:35.207Z,82.89
2022-10-09T07:46:03.576Z,82.79
2022-10-09T07:48:30.224Z,83.63
2022-10-09T07:50:57.592Z,84.23
2022-10-09T07:53:23.925Z,84.20
2022-10-09T07:55:50.245Z,84.96
2022-10-09T07:58:17.261Z,83.17
2022-10-09T08:00:44.219Z,83.99
2022-10-09T08:03:11.289Z,83.78
2022-10-09T08:05:37.826Z,84.02
2022-10-09T08:08:04.227Z,86.02
2022-10-09T08:10:31.121Z,83.65
2022-10-09T08:12:57.577Z,82.89
2022-10-09T08:15:23.976Z,83.74
2022-10-09T08:17:53.026Z,85.30
2022-10-09T08:20:19.600Z,84.49
2022-10-09T08:22:46.083Z,83.34
2022-10-09T08:25:12.719Z,84.78
2022-10-09T08:27:39.081Z,85.19
2022-10-09T08:30:05.951Z,83.09
2022-10-09T08:32:32.259Z,84.69
2022-10-09T08:34:58.772Z,83.70
2022-10-09T08:37:25.228Z,84.56
2022-10-09T08:39:51.555Z,83.99
2022-10-09T08:42:33.205Z,84.04
2022-10-09T08:44:59.514Z,84.91
2022-10-09T08:47:50.132Z,84.96
2022-10-09T08:50:20.055Z,84.57
2022-10-09T08:53:13.434Z,84.96
2022-10-09T08:55:49.067Z,85.22
2022-10-09T08:58:18.728Z,84.19
2022-10-09T09:00:52.175Z,85.57
2022-10-09T09:03:50.852Z,83.13
2022-10-09T09:06:42.637Z,84.25
2022-10-09T09:09:28.414Z,83.70
2022-10-09T09:12:04.164Z,84.15
2022-10-09T09:14:33.460Z,83.87
2022-10-09T09:17:09.532Z,82.30
2022-10-09T09:19:57.684Z,82.88
2022-10-09T09:22:25.064Z,83.31
2022-10-09T09:24:54.113Z,83.06
2022-10-09T09:27:27.389Z,82.99
2022-10-09T09:30:12.419Z,83.21
2022-10-09T09:32:51.902Z,82.87
2022-10-09T09:35:46.859Z,83.27
2022-10-09T09:38:14.518Z,82.84
2022-10-09T09:40:45.913Z,82.80
2022-10-09T09:43:24.714Z,82.45
2022-10-09T09:45:56.157Z,82.25
2022-10-09T09:48:35.581Z,82.87
2022-10-09T09:51:26.939Z,82.79
2022-10-09T09:53:56.156Z,82.38
2022-10-09T09:56:53.343Z,82.53
2022-10-09T09:59:38.537Z,83.01
2022-10-09T10:02:13.753Z,83.97
2022-10-09T10:04:57.527Z,83.71
2022-10-09T10:07:35.405Z,83.49
2022-10-09T10:10:25.684Z,83.80
2022-10-09T10:12:52.568Z,83.15
2022-10-09T10:15:31.956Z,83.85
2022-10-09T10:18:00.607Z,82.41
2022-10-09T10:20:29.450Z,83.02
2022-10-09T10:22:58.209Z,83.53
2022-10-09T10:25:29.622Z,83.36
2022-10-09T10:28:03.589Z,83.55
2022-10-09T10:30:30.714Z,83.93
2022-10-09T10:33:01.064Z,84.52
2022-10-09T10:35:31.344Z,84.05
2022-10-09T10:38:15.422Z,83.70
2022-10-09T10:40:56.458Z,84.05
2022-10-09T10:43:41.012Z,83.61
2022-10-09T10:46:25.215Z,83.47
2022-10-09T10:48:52.186Z,83.27
2022-10-09T10:51:45.157Z,82.98
2022-10-09T10:54:17.278Z,83.18
2022-10-09T10:56:56.205Z,83.03
2022-10-09T10:59:43.197Z,82.89
2022-10-09T11:02:09.494Z,82.38
2022-10-09T11:05:03.015Z,82.35
2022-10-09T11:07:50.097Z,82.11
2022-10-09T11:10:38.808Z,81.33
2022-10-09T11:13:24.569Z,79.30
2022-10-09T11:15:56.653Z,80.12
2022-10-09T11:18:41.307Z,80.70
2022-10-09T11:21:23.817Z,79.14
2022-10-09T11:24:09.932Z,79.25
2022-10-09T11:26:39.195Z,79.27
2022-10-09T11:29:13.197Z,78.74
2022-10-09T11:31:45.187Z,79.35
2022-10-09T11:34:40.377Z,78.63
2022-10-09T11:37:20.370Z,78.24
2022-10-09T11:39:46.908Z,77.92
2022-10-09T11:42:18.617Z,77.84
2022-10-09T11:44:50.200Z,77.73
2022-10-09T11:47:39.770Z,77.37
2022-10-09T11:50:39.369Z,76.89
2022-10-09T11:53:10.604Z,77.01
2022-10-09T11:55:37.255Z,75.95
2022-10-09T11:58:18.581Z,76.23
2022-10-09T12:00:46.981Z,76.11
2022-10-09T12:03:40.541Z,75.85
2022-10-09T12:06:14.090Z,74.87
2022-10-09T12:08:55.247Z,76.11
2022-10-09T12:11:22.613Z,76.30
2022-10-09T12:14:06.978Z,77.32
2022-10-09T12:16:45.313Z,77.20
2022-10-09T12:19:20.789Z,77.30
2022-10-09T12:22:07.444Z,76.87
2022-10-09T12:24:56.034Z,76.78
2022-10-09T12:27:28.764Z,76.91
2022-10-09T12:30:04.707Z,76.87
2022-10-09T12:32:36.653Z,76.00
2022-10-09T12:35:15.001Z,75.80
2022-10-09T12:37:41.320Z,76.05
2022-10-09T12:40:17.030Z,75.41
2022-10-09T12:42:44.950Z,75.14
2022-10-09T12:45:18.120Z,75.78
2022-10-09T12:47:45.074Z,74.78
2022-10-09T12:50:30.720Z,73.81
2022-10-09T12:52:59.579Z,75.17
2022-10-09T12:55:44.722Z,73.76
2022-10-09T12:58:19.220Z,74.05
2022-10-09T13:00:51.714Z,74.27
2022-10-09T13:03:38.164Z,73.92
2022-10-09T13:06:08.284Z,73.84
2022-10-09T13:08:37.783Z,73.08
2022-10-09T13:11:20.491Z,73.46
2022-10-09T13:13:51.833Z,74.21
2022-10-09T13:16:18.542Z,73.48
2022-10-09T13:18:58.534Z,72.71
2022-10-09T13:21:35.141Z,72.51
2022-10-09T13:24:10.102Z,72.40
2022-10-09T13:26:39.045Z,72.06
2022-10-09T13:29:07.344Z,71.48
2022-10-09T13:31:36.507Z,72.43
2022-10-09T13:34:13.096Z,72.31
2022-10-09T13:36:40.083Z,71.25
2022-10-09T13:39:06.575Z,72.53
2022-10-09T13:41:33.729Z,68.86
2022-10-09T13:44:00.202Z,72.81
2022-10-09T13:46:26.633Z,72.94
2022-10-09T13:48:53.118Z,73.58
2022-10-09T13:51:19.524Z,73.51
2022-10-09T13:53:45.951Z,73.98
2022-10-09T13:56:12.294Z,74.59
2022-10-09T13:58:38.947Z,75.13
2022-10-09T14:01:05.650Z,75.59
2022-10-09T14:03:34.611Z,75.47
2022-10-09T14:06:03.848Z,75.31
2022-10-09T14:08:31.163Z,75.34
2022-10-09T14:11:00.718Z,75.43
2022-10-09T14:13:27.758Z,74.50
2022-10-09T14:15:54.154Z,74.15
2022-10-09T14:18:20.906Z,73.72
2022-10-09T14:20:47.657Z,72.37
2022-10-09T14:23:14.117Z,72.98
2022-10-09T14:25:40.766Z,73.22
2022-10-09T14:28:07.494Z,72.86
2022-10-09T14:30:34.053Z,73.87
2022-10-09T14:33:00.422Z,73.10
2022-10-09T14:35:26.861Z,72.66
2022-10-09T14:37:53.316Z,72.12
2022-10-09T14:40:19.708Z,71.85
2022-10-09T14:42:46.397Z,72.36
2022-10-09T14:45:13.097Z,72.34
2022-10-09T14:47:39.512Z,72.37
2022-10-09T14:50:06.417Z,73.17
2022-10-09T14:52:32.842Z,74.73
2022-10-09T14:54:59.237Z,74.90
2022-10-09T14:57:25.635Z,74.67
2022-10-09T14:59:52.616Z,75.11
2022-10-09T15:02:19.323Z,75.47
2022-10-09T15:04:45.803Z,75.19
2022-10-09T15:07:12.146Z,75.86
2022-10-09T15:09:38.547Z,76.01
2022-10-09T15:12:05.242Z,75.37
2022-10-09T15:14:31.766Z,74.30
2022-10-09T15:16:58.135Z,74.27
2022-10-09T15:19:24.576Z,74.09
2022-10-09T15:21:50.927Z,74.06
2022-10-09T15:24:17.251Z,73.86
2022-10-09T15:26:44.183Z,73.71
2022-10-09T15:29:12.030Z,73.34
2022-10-09T15:31:41.130Z,74.00
2022-10-09T15:34:10.128Z,73.22
2022-10-09T15:36:39.936Z,73.01
2022-10-09T15:39:07.789Z,73.35
2022-10-09T15:41:37.719Z,73.25
2022-10-09T15:44:07.136Z,73.31
2022-10-09T15:46:33.917Z,73.69
2022-10-09T15:49:00.430Z,73.71
2022-10-09T15:51:26.843Z,74.11
2022-10-09T15:53:53.241Z,74.49
2022-10-09T15:56:22.858Z,74.32
2022-10-09T15:58:50.140Z,74.96
2022-10-09T16:01:17.442Z,74.06
2022-10-09T16:03:44.882Z,74.47
2022-10-09T16:06:15.907Z,74.85
2022-10-09T16:08:42.951Z,73.88
2022-10-09T16:11:11.900Z,74.49
2022-10-09T16:13:41.065Z,74.51
2022-10-09T16:16:11.667Z,73.70
2022-10-09T16:18:38.113Z,73.97
2022-10-09T16:21:10.664Z,74.01
2022-10-09T16:23:37.221Z,74.11
2022-10-09T16:26:04.811Z,74.15
2022-10-09T16:28:32.971Z,73.92
2022-10-09T16:30:59.616Z,73.82
2022-10-09T16:33:26.057Z,74.02
2022-10-09T16:35:52.681Z,66.43
2022-10-09T16:38:19.354Z,73.42
2022-10-09T16:41:03.116Z,73.94
2022-10-09T16:43:33.478Z,74.00
2022-10-09T16:46:15.323Z,73.83
2022-10-09T16:48:41.627Z,73.05
2022-10-09T16:51:13.224Z,73.45
2022-10-09T16:53:40.282Z,73.25
2022-10-09T16:56:08.715Z,73.62
2022-10-09T16:58:35.107Z,73.46
2022-10-09T17:01:06.106Z,73.27
2022-10-09T17:03:35.995Z,72.62
2022-10-09T17:06:08.046Z,72.32
2022-10-09T17:08:34.570Z,73.58
2022-10-09T17:11:01.034Z,72.27
2022-10-09T17:13:27.462Z,72.12
2022-10-09T17:15:53.833Z,72.72
2022-10-09T17:18:21.113Z,72.06
2022-10-09T17:20:47.474Z,71.92
2022-10-09T17:23:13.853Z,71.79
2022-10-09T17:25:42.021Z,71.16
2022-10-09T17:28:08.645Z,71.91
2022-10-09T17:30:40.439Z,71.49
2022-10-09T17:33:07.133Z,70.31
2022-10-09T17:35:33.596Z,70.67
2022-10-09T17:38:00.009Z,71.14
2022-10-09T17:40:26.464Z,70.92
2022-10-09T17:42:52.855Z,70.25
2022-10-09T17:45:19.298Z,70.84
2022-10-09T17:47:45.697Z,71.56
2022-10-09T17:50:12.332Z,70.96
2022-10-09T17:52:38.675Z,70.15
2022-10-09T17:55:05.476Z,71.81
2022-10-09T17:57:31.824Z,70.96
2022-10-09T17:59:58.160Z,70.08
2022-10-09T18:02:24.545Z,70.67
2022-10-09T18:04:51.040Z,70.91
2022-10-09T18:07:19.417Z,71.71
2022-10-09T18:09:45.757Z,72.43
2022-10-09T18:12:12.130Z,72.34
2022-10-09T18:14:38.488Z,73.28
2022-10-09T18:17:04.841Z,73.17
2022-10-09T18:19:31.238Z,73.68
2022-10-09T18:21:57.623Z,73.80
2022-10-09T18:24:24.072Z,72.82
2022-10-09T18:26:50.611Z,74.55
2022-10-09T18:29:16.928Z,75.50
2022-10-09T18:31:43.336Z,74.61
2022-10-09T18:34:10.838Z,73.56
2022-10-09T18:36:38.141Z,74.13
2022-10-09T18:39:10.320Z,74.65
2022-10-09T18:41:37.672Z,75.89
2022-10-09T18:44:05.216Z,76.58
2022-10-09T18:46:39.333Z,75.44
2022-10-09T18:49:11.055Z,76.47
2022-10-09T18:51:39.028Z,76.36
2022-10-09T18:54:07.027Z,77.38
2022-10-09T18:56:36.408Z,76.92
2022-10-09T18:59:10.701Z,77.77
2022-10-09T19:01:37.240Z,78.34
2022-10-09T19:04:04.464Z,77.83
2022-10-09T19:06:31.076Z,79.08
2022-10-09T19:09:00.811Z,77.56
2022-10-09T19:11:29.744Z,77.11
2022-10-09T19:13:56.425Z,78.66
2022-10-09T19:16:24.198Z,76.60
2022-10-09T19:18:53.101Z,76.91
2022-10-09T19:21:20.061Z,76.20
2022-10-09T19:23:48.735Z,77.55
2022-10-09T19:26:16.067Z,76.39
2022-10-09T19:28:42.698Z,74.67
2022-10-09T19:31:10.283Z,75.21
2022-10-09T19:33:37.902Z,73.68
2022-10-09T19:36:04.818Z,73.88
2022-10-09T19:38:31.542Z,72.33
2022-10-09T19:41:12.514Z,72.69
2022-10-09T19:43:39.283Z,72.25
2022-10-09T19:46:11.796Z,71.70
2022-10-09T19:48:38.310Z,72.49
2022-10-09T19:51:07.099Z,72.79
2022-10-09T19:53:34.498Z,72.05
2022-10-09T19:56:01.220Z,72.11
2022-10-09T19:58:27.575Z,71.21
2022-10-09T20:00:53.996Z,72.29
2022-10-09T20:03:20.362Z,72.38
2022-10-09T20:05:46.687Z,72.09
2022-10-09T20:08:13.059Z,73.03
2022-10-09T20:10:39.477Z,71.85
2022-10-09T20:13:06.030Z,73.33
2022-10-09T20:15:32.398Z,72.65
2022-10-09T20:17:58.841Z,74.31
2022-10-09T20:20:26.898Z,74.64
2022-10-09T20:22:54.152Z,74.80
2022-10-09T20:25:20.760Z,74.76
2022-10-09T20:27:47.287Z,75.77
2022-10-09T20:30:13.705Z,76.46
2022-10-09T20:32:40.150Z,75.98
2022-10-09T20:35:07.069Z,76.33
2022-10-09T20:37:34.858Z,75.64
2022-10-09T20:40:01.283Z,76.81
2022-10-09T20:42:27.598Z,76.24
2022-10-09T20:44:53.932Z,76.94
2022-10-09T20:47:20.265Z,76.59
2022-10-09T20:49:48.365Z,76.52
2022-10-09T20:52:14.708Z,77.30
2022-10-09T20:54:41.050Z,75.46
2022-10-09T20:57:07.335Z,75.91
2022-10-09T20:59:33.698Z,77.58
2022-10-09T21:02:00.046Z,77.10
2022-10-09T21:04:26.409Z,75.64
2022-10-09T21:06:52.833Z,75.75
2022-10-09T21:09:19.164Z,75.85
2022-10-09T21:11:45.824Z,76.47
2022-10-09T21:14:12.209Z,76.03
2022-10-09T21:16:38.772Z,74.67
2022-10-09T21:19:05.829Z,75.56
2022-10-09T21:21:33.583Z,76.00
2022-10-09T21:24:00.531Z,74.48
2022-10-09T21:26:28.557Z,75.41
2022-10-09T21:28:59.332Z,75.17
2022-10-09T21:31:28.593Z,77.44
2022-10-09T21:33:55.875Z,76.76
2022-10-09T21:37:16.010Z,76.75
2022-10-09T21:39:33.987Z,77.34
2022-10-09T21:42:00.361Z,74.94
2022-10-09T21:44:27.511Z,75.37
2022-10-09T21:46:53.903Z,74.90
2022-10-09T21:49:23.233Z,74.50
2022-10-09T21:51:49.638Z,74.18
2022-10-09T21:54:16.265Z,75.35
2022-10-09T21:56:42.801Z,72.95
2022-10-09T21:59:11.334Z,74.33
2022-10-09T22:01:37.835Z,72.21
2022-10-09T22:04:04.669Z,73.24
2022-10-09T22:06:31.107Z,71.40
2022-10-09T22:08:58.888Z,72.95
2022-10-09T22:11:25.322Z,72.14
2022-10-09T22:13:51.634Z,72.00
2022-10-09T22:16:17.962Z,71.24
2022-10-09T22:18:44.412Z,71.76
2022-10-09T22:21:14.288Z,69.94
2022-10-09T22:23:41.365Z,69.43
2022-10-09T22:26:11.609Z,70.09
2022-10-09T22:28:38.112Z,69.27
2022-10-09T22:31:06.286Z,70.91
2022-10-09T22:33:34.616Z,69.91
2022-10-09T22:36:20.592Z,69.65
2022-10-09T22:38:47.096Z,69.62
2022-10-09T22:41:17.574Z,69.44
2022-10-09T22:43:49.227Z,70.39
2022-10-09T22:46:17.092Z,69.87
2022-10-09T22:48:44.810Z,69.66
2022-10-09T22:51:13.864Z,70.24
2022-10-09T22:53:41.747Z,70.51
2022-10-09T22:56:11.873Z,72.03
2022-10-09T22:58:38.243Z,71.45
2022-10-09T23:01:07.617Z,71.77
2022-10-09T23:03:34.273Z,70.85
2022-10-09T23:06:14.410Z,71.26
2022-10-09T23:08:42.560Z,72.00
2022-10-09T23:11:09.525Z,71.04
2022-10-09T23:13:36.247Z,69.96
2022-10-09T23:16:05.004Z,70.21
2022-10-09T23:18:31.826Z,69.40
2022-10-09T23:20:58.559Z,70.59
2022-10-09T23:23:24.975Z,69.41
2022-10-09T23:25:51.295Z,70.92
2022-10-09T23:28:17.693Z,70.27
2022-10-09T23:30:44.024Z,70.90
2022-10-09T23:33:10.344Z,69.54
2022-10-09T23:35:43.617Z,69.73
2022-10-09T23:38:10.002Z,69.81
2022-10-09T23:40:36.316Z,70.61
2022-10-09T23:43:02.675Z,69.63
2022-10-09T23:45:29.027Z,69.70
2022-10-09T23:47:55.352Z,71.60
2022-10-09T23:50:21.705Z,70.76
2022-10-09T23:52:48.392Z,71.46
2022-10-09T23:55:14.980Z,70.92
2022-10-09T23:57:41.372Z,71.85
